This is the latest recevied weather packets stored in our database for station/object JF7BTK-10. If no packets are shown the sender has not sent any weather packets the latest 10 day(s).
| Time | Temp. | Humidity | Pressure | Rain* | Wind** | Luminosity | Snow |
|---|---|---|---|---|---|---|---|
| 1778310999 | 11.11° C | 80% | 1004.5 hPa | 0 mm | - | - | - |
| 1778310379 | 11.11° C | 80% | 1004.5 hPa | 0 mm | - | - | - |
| 1778310098 | 11.11° C | 80% | 1004.6 hPa | 0 mm | - | - | - |
| 1778309197 | 11.11° C | 81% | 1004.3 hPa | 0 mm | - | - | - |
| 1778307399 | 11.11° C | 79% | 1004 hPa | 0 mm | - | - | - |
| 1778306497 | 11.11° C | 78% | 1003.8 hPa | 0 mm | - | - | - |
| 1778305879 | 11.11° C | 77% | 1003.6 hPa | 0 mm | - | - | - |
| 1778305598 | 11.67° C | 77% | 1003.7 hPa | 0 mm | - | - | - |
| 1778304698 | 11.67° C | 76% | 1003.5 hPa | 0 mm | - | - | - |
| 1778304079 | 12.22° C | 79% | 1003.2 hPa | 0 mm | - | - | - |
| 1778303799 | 11.67° C | 80% | 1003.1 hPa | 0 mm | - | - | - |
| 1778302899 | 11.11° C | 82% | 1003.1 hPa | 0 mm | - | - | - |
| 1778301999 | 11.67° C | 76% | 1002.8 hPa | 0 mm | - | - | - |
| 1778301098 | 12.22° C | 73% | 1003.2 hPa | 0 mm | - | - | - |
| 1778300199 | 11.67° C | 75% | 1003.1 hPa | 0 mm | - | - | - |
| 1778299298 | 11.67° C | 75% | 1003.2 hPa | 0 mm | - | - | - |
| 1778298398 | 11.67° C | 73% | 1002.8 hPa | 0 mm | - | - | - |
| 1778297498 | 12.22° C | 72% | 1002.5 hPa | 0 mm | - | - | - |
| 1778296598 | 12.22° C | 73% | 1002.2 hPa | 0 mm | - | - | - |
| 1778294798 | 11.67° C | 75% | 1001.6 hPa | 2.03 mm | - | - | - |
| 1778293899 | 11.67° C | 74% | 1000.8 hPa | 2.79 mm | - | - | - |
| 1778292999 | 11.11° C | 79% | 1000.3 hPa | 2.79 mm | - | - | - |
| 1778292098 | 10.56° C | 83% | 999.9 hPa | 2.29 mm | - | - | - |
| 1778291198 | 10.56° C | 88% | 999.6 hPa | 1.27 mm | - | - | - |
| 1778290299 | 10° C | 88% | 999.5 hPa | 1.78 mm | - | - | - |
* Rain latest hour (hover to see other rain measurements)
** Current wind speed in m/s (hover to see current wind gust speed)